Time;durP1;ratioP1;P1;durP2;ratioP2;P2;SDS_P1;SDS_P2;PMS_P1;PMS_P2;Temp;Humidity;BMP_temperature;BMP_pressure;BME280_temperature;BME280_humidity;BME280_pressure;Samples;Min_cycle;Max_cycle;Signal;HPM_P1;HPM_P2
2023/07/26 00:00:50;;;;;;;0.40;0.40;;;;;;;19.21;84.90;98412.59;5114985;28;20497;-60
2023/07/26 00:03:19;;;;;;;0.43;0.43;;;;;;;19.14;84.71;98408.69;5115202;28;20071;-60
2023/07/26 00:05:48;;;;;;;0.40;0.40;;;;;;;19.14;84.94;98417.28;5114772;28;20040;-60
2023/07/26 00:08:19;;;;;;;0.52;0.52;;;;;;;19.08;85.06;98417.59;5114751;28;20040;-60
2023/07/26 00:10:48;;;;;;;0.50;0.50;;;;;;;19.02;85.12;98415.38;5115305;28;20081;-60
2023/07/26 00:13:18;;;;;;;0.57;0.57;;;;;;;18.96;85.43;98407.94;5114998;28;20063;-60
2023/07/26 00:15:46;;;;;;;0.50;0.50;;;;;;;18.98;85.68;98394.94;5114655;28;20133;-60
2023/07/26 00:18:15;;;;;;;1.23;1.13;;;;;;;18.99;85.53;98387.09;5114757;28;20071;-60
2023/07/26 00:20:44;;;;;;;0.67;0.53;;;;;;;18.99;85.46;98381.06;5114536;28;20085;-60
2023/07/26 00:23:13;;;;;;;0.65;0.65;;;;;;;19.00;85.38;98382.75;5114807;28;20563;-60
2023/07/26 00:25:43;;;;;;;1.65;1.08;;;;;;;18.93;85.36;98386.59;5114395;28;20130;-60
2023/07/26 00:28:12;;;;;;;0.40;0.40;;;;;;;18.99;85.42;98391.41;5114820;28;20047;-60
2023/07/26 00:30:41;;;;;;;2.10;1.17;;;;;;;18.95;85.40;98385.59;5114438;28;20051;-60
2023/07/26 00:33:12;;;;;;;0.40;0.40;;;;;;;18.94;85.39;98396.00;5114439;28;20366;-60
2023/07/26 00:35:43;;;;;;;0.75;0.70;;;;;;;18.92;85.32;98385.75;5112819;28;20489;-60
2023/07/26 00:38:12;;;;;;;0.50;0.50;;;;;;;18.91;85.23;98378.91;5114506;28;20065;-60
2023/07/26 00:40:43;;;;;;;;;;;;;;;18.83;84.96;98380.25;5114641;28;20568;-60
2023/07/26 00:43:12;;;;;;;0.70;0.70;;;;;;;18.80;85.24;98391.59;5114077;28;19924;-60
2023/07/26 00:45:43;;;;;;;0.53;0.53;;;;;;;18.79;85.19;98404.63;5113291;28;20036;-60
2023/07/26 00:48:14;;;;;;;1.10;1.02;;;;;;;18.80;85.44;98406.28;5114364;28;20047;-60
2023/07/26 00:50:46;;;;;;;0.60;0.60;;;;;;;18.86;85.43;98411.13;5114107;28;20054;-60
2023/07/26 00:53:15;;;;;;;0.50;0.50;;;;;;;18.82;85.28;98409.59;5114125;28;20043;-60
2023/07/26 00:55:46;;;;;;;;;;;;;;;18.71;85.48;98407.63;5113874;28;20052;-60
2023/07/26 00:58:16;;;;;;;0.65;0.65;;;;;;;18.68;85.91;98393.09;5113915;28;19923;-60
2023/07/26 01:00:46;;;;;;;0.93;0.90;;;;;;;18.69;85.90;98399.13;5113167;28;20040;-60
2023/07/26 01:03:15;;;;;;;0.65;0.60;;;;;;;18.66;86.01;98399.28;5113989;28;20073;-60
2023/07/26 01:05:56;;;;;;;2.10;1.20;;;;;;;18.65;86.51;98398.44;5113998;28;20044;-60
2023/07/26 01:08:35;;;;;;;0.60;0.60;;;;;;;18.72;86.71;98386.84;5113203;28;20040;-60
2023/07/26 01:11:14;;;;;;;0.85;0.75;;;;;;;18.79;86.68;98383.94;5112901;28;20127;-60
2023/07/26 01:13:50;;;;;;;0.60;0.60;;;;;;;18.81;86.85;98395.03;5112799;28;20055;-60
2023/07/26 01:16:19;;;;;;;1.60;0.70;;;;;;;18.78;86.86;98387.44;5113042;28;20043;-60
2023/07/26 01:18:48;;;;;;;;;;;;;;;18.71;86.81;98377.41;5113031;28;20048;-60
2023/07/26 01:21:17;;;;;;;1.10;0.77;;;;;;;18.78;86.83;98377.09;5113801;28;20369;-60
2023/07/26 01:23:47;;;;;;;0.65;0.65;;;;;;;18.81;86.72;98372.59;5112593;28;20138;-60
2023/07/26 01:26:17;;;;;;;1.10;1.00;;;;;;;18.88;86.73;98362.75;5112501;28;20077;-60
2023/07/26 01:28:45;;;;;;;0.97;0.97;;;;;;;18.88;86.44;98363.59;5113308;28;20111;-60
2023/07/26 01:31:17;;;;;;;2.67;0.80;;;;;;;18.83;86.67;98365.59;5112806;28;20382;-60
2023/07/26 01:33:48;;;;;;;0.98;0.93;;;;;;;18.74;86.70;98361.75;5113753;28;20105;-60
2023/07/26 01:36:20;;;;;;;0.90;0.70;;;;;;;18.80;86.87;98349.41;5112768;28;20378;-60
2023/07/26 01:38:51;;;;;;;1.02;0.95;;;;;;;18.85;86.78;98342.22;5113598;28;20044;-60
2023/07/26 01:41:20;;;;;;;0.60;0.60;;;;;;;18.84;86.59;98345.72;5112831;28;20088;-60
2023/07/26 01:43:49;;;;;;;;;;;;;;;18.78;86.27;98344.31;5112918;28;20072;-60
2023/07/26 01:46:18;;;;;;;0.70;0.70;;;;;;;18.73;86.53;98347.16;5116292;28;20018;-60
2023/07/26 01:48:47;;;;;;;0.82;0.80;;;;;;;18.76;86.60;98350.50;5117502;28;20054;-60
2023/07/26 01:51:16;;;;;;;0.43;0.43;;;;;;;18.74;86.62;98350.56;5116231;28;20122;-60
2023/07/26 01:53:45;;;;;;;0.87;0.83;;;;;;;18.65;86.33;98357.06;5116208;28;20122;-60
2023/07/26 01:56:15;;;;;;;0.75;0.70;;;;;;;18.55;86.64;98350.75;5116129;28;20268;-60
2023/07/26 01:58:44;;;;;;;1.65;0.90;;;;;;;18.52;87.00;98356.06;5116027;28;20051;-60
2023/07/26 02:01:13;;;;;;;2.33;1.00;;;;;;;18.45;86.88;98353.88;5115981;28;20039;-60
2023/07/26 02:03:42;;;;;;;0.70;0.70;;;;;;;18.43;87.20;98356.53;5116090;28;20046;-60
2023/07/26 02:06:12;;;;;;;0.50;0.50;;;;;;;18.41;87.27;98368.69;5115964;28;20100;-60
2023/07/26 02:08:42;;;;;;;0.50;0.50;;;;;;;18.34;87.44;98361.34;5115914;28;20055;-60
2023/07/26 02:11:11;;;;;;;1.07;0.67;;;;;;;18.33;87.44;98359.72;5115853;28;20051;-60
2023/07/26 02:13:41;;;;;;;6.05;0.73;;;;;;;18.37;87.50;98366.38;5115803;28;20282;-60
2023/07/26 02:16:10;;;;;;;0.85;0.85;;;;;;;18.44;87.55;98376.28;5117559;28;20058;-60
2023/07/26 02:18:39;;;;;;;1.00;0.60;;;;;;;18.51;87.47;98385.41;5116876;28;20039;-60
2023/07/26 02:21:09;;;;;;;0.35;0.35;;;;;;;18.56;87.40;98398.94;5117100;28;20479;-60
2023/07/26 02:23:37;;;;;;;1.00;0.70;;;;;;;18.52;87.27;98402.56;5115630;28;20038;-60
2023/07/26 02:26:06;;;;;;;0.93;0.93;;;;;;;18.47;87.19;98409.75;5116003;28;20271;-60
2023/07/26 02:28:36;;;;;;;1.08;0.93;;;;;;;18.39;87.44;98414.47;5115822;28;20485;-60
2023/07/26 02:31:06;;;;;;;0.40;0.40;;;;;;;18.35;87.44;98415.53;5115404;28;20044;-60
2023/07/26 02:33:35;;;;;;;1.25;1.13;;;;;;;18.30;87.67;98417.53;5116645;28;20051;-60
2023/07/26 02:36:05;;;;;;;0.57;0.57;;;;;;;18.27;87.75;98428.00;5115813;28;20058;-60
2023/07/26 02:38:33;;;;;;;0.57;0.57;;;;;;;18.21;87.73;98438.66;5116540;28;20426;-60
2023/07/26 02:41:02;;;;;;;0.68;0.68;;;;;;;18.08;87.72;98425.56;5115097;28;20042;-60
2023/07/26 02:43:31;;;;;;;0.77;0.77;;;;;;;18.15;87.91;98426.06;5116416;28;20519;-60
2023/07/26 02:46:10;;;;;;;5.88;1.85;;;;;;;18.15;87.79;98418.31;5115179;28;20264;-60
2023/07/26 02:48:40;;;;;;;2.28;1.40;;;;;;;18.26;88.01;98416.00;5116350;28;20047;-60
2023/07/26 02:51:08;;;;;;;1.03;0.97;;;;;;;18.31;87.82;98411.44;5116296;28;20501;-60
2023/07/26 02:53:37;;;;;;;0.75;0.75;;;;;;;18.28;87.58;98401.28;5114988;28;20036;-60
2023/07/26 02:56:06;;;;;;;0.55;0.55;;;;;;;18.27;87.64;98407.34;5116231;28;20468;-60
2023/07/26 02:58:35;;;;;;;1.85;0.73;;;;;;;18.20;87.51;98400.84;5115752;28;20497;-60
2023/07/26 03:01:04;;;;;;;2.38;1.73;;;;;;;18.13;87.77;98399.50;5116646;28;20043;-60
2023/07/26 03:03:35;;;;;;;0.90;0.70;;;;;;;18.19;87.93;98399.16;5114863;28;20032;-60
2023/07/26 03:06:04;;;;;;;3.10;1.55;;;;;;;18.15;87.84;98400.25;5115970;28;20039;-60
2023/07/26 03:08:33;;;;;;;1.40;1.30;;;;;;;18.15;88.18;98401.97;5116260;27;20493;-60
2023/07/26 03:11:02;;;;;;;0.77;0.77;;;;;;;18.26;88.20;98405.66;5115952;28;20536;-60
2023/07/26 03:13:31;;;;;;;0.60;0.60;;;;;;;18.33;88.24;98413.97;5115815;28;20047;-60
2023/07/26 03:16:00;;;;;;;0.70;0.70;;;;;;;18.32;88.09;98413.13;5114612;28;20063;-60
2023/07/26 03:18:28;;;;;;;0.63;0.63;;;;;;;18.25;88.11;98413.50;5115725;28;20094;-60
2023/07/26 03:20:59;;;;;;;0.80;0.80;;;;;;;18.20;88.25;98421.50;5115629;28;20036;-60
2023/07/26 03:23:28;;;;;;;0.50;0.50;;;;;;;18.22;88.33;98414.50;5114418;28;20042;-60
2023/07/26 03:25:57;;;;;;;0.60;0.60;;;;;;;18.26;88.39;98421.16;5115983;28;20433;-60
2023/07/26 03:28:26;;;;;;;1.15;1.05;;;;;;;18.28;88.45;98413.34;5116340;28;20040;-60
2023/07/26 03:30:55;;;;;;;0.98;0.98;;;;;;;18.28;88.51;98409.03;5115459;28;20050;-60
2023/07/26 03:33:23;;;;;;;1.10;1.07;;;;;;;18.29;88.60;98415.84;5115417;28;20063;-60
2023/07/26 03:35:53;;;;;;;0.90;0.90;;;;;;;18.25;88.50;98413.50;5115737;28;20350;-60
2023/07/26 03:38:23;;;;;;;2.53;1.45;;;;;;;18.26;88.47;98426.34;5115390;28;20067;-61
2023/07/26 03:40:52;;;;;;;1.38;0.80;;;;;;;18.31;88.78;98423.53;5115241;28;20054;-61
2023/07/26 03:43:21;;;;;;;1.20;0.80;;;;;;;18.33;88.66;98427.69;5115026;28;20451;-60
2023/07/26 03:45:50;;;;;;;0.70;0.70;;;;;;;18.30;88.58;98422.69;5116030;28;20304;-60
2023/07/26 03:48:19;;;;;;;0.75;0.75;;;;;;;18.33;88.69;98425.09;5115165;27;20043;-60
2023/07/26 03:50:50;;;;;;;2.38;1.58;;;;;;;18.36;88.54;98422.38;5114532;28;20044;-60
2023/07/26 03:53:19;;;;;;;0.52;0.52;;;;;;;18.34;88.33;98426.78;5115320;28;20397;-60
2023/07/26 03:55:49;;;;;;;0.60;0.60;;;;;;;18.37;88.07;98429.22;5115332;28;20497;-60
2023/07/26 03:58:19;;;;;;;1.27;1.17;;;;;;;18.40;87.71;98428.22;5115004;28;20560;-60
2023/07/26 04:00:47;;;;;;;;;;;;;;;18.42;87.50;98431.56;5115215;28;20047;-60
2023/07/26 04:03:16;;;;;;;0.70;0.70;;;;;;;18.44;86.98;98424.53;5115462;28;19919;-60
2023/07/26 04:05:46;;;;;;;0.88;0.75;;;;;;;18.44;86.84;98435.72;5113664;28;20047;-60
2023/07/26 04:08:14;;;;;;;0.63;0.63;;;;;;;18.44;86.43;98433.13;5114451;28;20046;-60
2023/07/26 04:10:43;;;;;;;0.50;0.50;;;;;;;18.49;86.50;98436.34;5114172;28;20050;-61
2023/07/26 04:13:14;;;;;;;0.63;0.63;;;;;;;18.47;86.22;98445.94;5114702;28;20047;-61
2023/07/26 04:15:42;;;;;;;0.95;0.68;;;;;;;18.46;86.21;98449.44;5114969;28;20303;-60
2023/07/26 04:18:11;;;;;;;1.00;0.95;;;;;;;18.44;85.97;98446.06;5114987;28;20401;-61
2023/07/26 04:20:40;;;;;;;0.50;0.50;;;;;;;18.44;85.94;98458.13;5114473;28;20055;-61
2023/07/26 04:23:09;;;;;;;0.50;0.50;;;;;;;18.46;85.90;98466.66;5114515;28;20052;-61
2023/07/26 04:25:38;;;;;;;2.65;1.98;;;;;;;18.53;85.92;98465.44;5114453;28;20393;-61
2023/07/26 04:28:07;;;;;;;0.50;0.50;;;;;;;18.54;85.90;98474.88;5114784;28;20039;-60
2023/07/26 04:30:38;;;;;;;0.90;0.88;;;;;;;18.55;85.76;98477.38;5114312;28;20043;-60
2023/07/26 04:33:07;;;;;;;0.60;0.60;;;;;;;18.51;85.67;98481.03;5114960;28;20044;-60
2023/07/26 04:35:36;;;;;;;0.60;0.60;;;;;;;18.45;85.80;98483.88;5114262;28;20047;-60
2023/07/26 04:38:05;;;;;;;0.50;0.50;;;;;;;18.45;86.04;98473.56;5114546;28;20427;-60
2023/07/26 04:40:38;;;;;;;0.98;0.85;;;;;;;18.47;86.00;98470.94;5114153;28;20039;-60
2023/07/26 04:43:09;;;;;;;2.65;1.58;;;;;;;18.49;85.99;98477.69;5114083;28;20059;-60
2023/07/26 04:45:39;;;;;;;0.40;0.40;;;;;;;18.54;85.87;98483.47;5114095;28;20035;-60
2023/07/26 04:48:09;;;;;;;0.60;0.60;;;;;;;18.56;86.00;98486.81;5114167;28;20047;-60
2023/07/26 04:50:38;;;;;;;0.40;0.40;;;;;;;18.36;86.06;98486.09;5114180;28;20043;-60
2023/07/26 04:53:06;;;;;;;0.47;0.47;;;;;;;18.39;86.09;98489.38;5114157;28;20288;-60
2023/07/26 04:55:41;;;;;;;0.45;0.45;;;;;;;18.41;86.11;98492.72;5114096;28;20043;-60
2023/07/26 04:58:10;;;;;;;1.17;0.95;;;;;;;18.42;86.33;98493.56;5114017;28;20130;-60
2023/07/26 05:00:40;;;;;;;0.50;0.50;;;;;;;18.43;86.31;98501.22;5113923;28;20047;-60
2023/07/26 05:03:10;;;;;;;1.63;1.00;;;;;;;18.43;86.30;98500.38;5114351;28;20051;-61
2023/07/26 05:05:40;;;;;;;1.15;1.05;;;;;;;18.41;86.60;98508.22;5114649;28;20054;-61
2023/07/26 05:08:09;;;;;;;2.80;0.90;;;;;;;18.43;86.67;98501.22;5114233;28;20040;-60
2023/07/26 05:10:38;;;;;;;0.63;0.63;;;;;;;18.48;86.84;98501.00;5113889;28;20047;-61
2023/07/26 05:13:07;;;;;;;1.08;0.98;;;;;;;18.46;86.86;98506.28;5113867;28;20040;-61
2023/07/26 05:15:36;;;;;;;0.60;0.60;;;;;;;18.40;87.11;98506.56;5113828;28;20028;-60
2023/07/26 05:18:06;;;;;;;0.90;0.90;;;;;;;18.41;87.06;98508.22;5113776;28;20337;-61
2023/07/26 05:20:35;;;;;;;0.70;0.70;;;;;;;18.44;87.11;98508.06;5115416;28;20040;-61
2023/07/26 05:23:04;;;;;;;0.50;0.50;;;;;;;18.45;86.96;98509.72;5117947;28;20050;-61
2023/07/26 05:25:33;;;;;;;1.17;0.88;;;;;;;18.42;87.31;98499.56;5118000;28;20046;-60
2023/07/26 05:28:02;;;;;;;1.35;0.82;;;;;;;18.47;87.48;98497.63;5118188;28;20108;-61
2023/07/26 05:30:31;;;;;;;0.50;0.50;;;;;;;18.46;87.37;98498.53;5118385;28;20040;-61
2023/07/26 05:33:00;;;;;;;0.90;0.82;;;;;;;18.49;87.37;98506.13;5118129;28;20283;-61
2023/07/26 05:35:30;;;;;;;0.53;0.53;;;;;;;18.51;87.31;98504.28;5117827;28;20063;-61
2023/07/26 05:37:59;;;;;;;0.90;0.88;;;;;;;18.57;87.63;98503.16;5117656;28;20267;-61
2023/07/26 05:40:28;;;;;;;1.00;0.90;;;;;;;18.60;87.60;98503.81;5117986;28;20043;-61
2023/07/26 05:42:56;;;;;;;1.87;0.87;;;;;;;18.65;87.85;98496.66;5117292;28;20059;-61
2023/07/26 05:45:28;;;;;;;0.57;0.57;;;;;;;18.68;87.98;98491.31;5118692;28;20421;-61
2023/07/26 05:47:57;;;;;;;0.80;0.80;;;;;;;18.70;87.82;98484.31;5117452;28;20079;-60
2023/07/26 05:50:26;;;;;;;0.80;0.80;;;;;;;18.77;87.77;98499.50;5117762;28;20503;-60
2023/07/26 05:52:56;;;;;;;0.95;0.60;;;;;;;18.82;87.50;98487.16;5117429;28;20075;-60
2023/07/26 05:55:25;;;;;;;0.80;0.80;;;;;;;18.82;87.10;98487.16;5117455;28;20083;-61
2023/07/26 05:57:53;;;;;;;1.23;1.00;;;;;;;18.91;86.81;98486.69;5113511;28;20051;-60
2023/07/26 06:00:22;;;;;;;0.60;0.60;;;;;;;18.98;86.61;98485.44;5097025;28;20050;-61
2023/07/26 06:02:51;;;;;;;0.50;0.50;;;;;;;19.06;86.62;98496.19;5096788;28;20376;-61
2023/07/26 06:05:21;;;;;;;0.60;0.60;;;;;;;19.09;86.76;98503.81;5097182;28;20032;-61
2023/07/26 06:07:50;;;;;;;0.57;0.57;;;;;;;19.17;86.64;98506.81;5096723;28;20044;-61
2023/07/26 06:10:21;;;;;;;0.50;0.50;;;;;;;19.28;86.37;98489.78;5098913;28;20040;-61
2023/07/26 06:12:49;;;;;;;0.50;0.50;;;;;;;19.35;86.01;98490.28;5097167;28;20040;-60
2023/07/26 06:15:18;;;;;;;1.05;0.70;;;;;;;19.46;85.83;98490.53;5096572;28;20040;-61
2023/07/26 06:17:47;;;;;;;0.50;0.50;;;;;;;19.56;85.70;98491.69;5096430;28;20046;-61
2023/07/26 06:20:16;;;;;;;0.73;0.73;;;;;;;19.58;85.08;98479.50;5111368;28;20063;-61
2023/07/26 06:22:47;;;;;;;0.60;0.60;;;;;;;19.64;84.34;98478.31;5116980;28;20050;-60
2023/07/26 06:25:16;;;;;;;0.50;0.50;;;;;;;19.65;83.61;98470.47;5116709;28;20048;-60
2023/07/26 06:27:46;;;;;;;0.90;0.77;;;;;;;19.57;82.59;98485.63;5116674;28;20063;-60
2023/07/26 06:30:15;;;;;;;1.45;0.82;;;;;;;19.66;82.25;98498.03;5115537;28;20047;-60
2023/07/26 06:32:44;;;;;;;1.20;1.10;;;;;;;19.69;81.92;98509.97;5115878;27;20039;-61
2023/07/26 06:35:13;;;;;;;0.93;0.88;;;;;;;19.73;81.83;98508.88;5114002;28;20035;-61
2023/07/26 06:37:42;;;;;;;2.20;0.73;;;;;;;19.76;81.78;98519.91;5104472;28;20047;-60
2023/07/26 06:40:11;;;;;;;;;;;;;;;19.73;81.56;98520.06;5115385;28;20039;-61
2023/07/26 06:42:40;;;;;;;0.83;0.70;;;;;;;19.69;81.60;98518.59;5099729;28;19927;-61
2023/07/26 06:45:11;;;;;;;0.63;0.63;;;;;;;19.72;81.60;98512.41;5095753;28;20063;-61
2023/07/26 06:47:40;;;;;;;0.75;0.65;;;;;;;19.73;81.68;98514.88;5095113;28;20066;-61
2023/07/26 06:50:09;;;;;;;1.05;0.98;;;;;;;19.74;81.78;98519.16;5095900;28;20117;-61
2023/07/26 06:52:38;;;;;;;0.63;0.63;;;;;;;19.65;81.94;98521.44;5110456;28;20085;-61
2023/07/26 06:55:08;;;;;;;0.98;0.85;;;;;;;19.59;81.36;98522.59;5098165;28;20143;-60
2023/07/26 06:57:37;;;;;;;0.50;0.50;;;;;;;19.64;81.04;98540.47;5116098;28;20047;-61
2023/07/26 07:00:12;;;;;;;0.70;0.70;;;;;;;19.69;81.03;98544.47;5116060;28;20039;-62
2023/07/26 07:02:43;;;;;;;0.68;0.68;;;;;;;19.71;80.94;98547.81;5104509;28;20040;-61
2023/07/26 07:05:14;;;;;;;0.50;0.50;;;;;;;19.71;80.68;98545.22;5095631;28;20564;-61
2023/07/26 07:07:43;;;;;;;0.60;0.60;;;;;;;19.69;80.58;98549.66;5095650;28;20048;-61
2023/07/26 07:10:12;;;;;;;0.70;0.70;;;;;;;19.62;81.07;98548.31;5095530;28;20048;-61
2023/07/26 07:12:41;;;;;;;0.88;0.75;;;;;;;19.57;81.30;98547.75;5101682;28;20036;-61
2023/07/26 07:15:10;;;;;;;0.82;0.82;;;;;;;19.53;81.24;98548.81;5093918;28;20061;-61
2023/07/26 07:17:39;;;;;;;;;;;;;;;19.49;80.92;98555.06;5096072;28;20443;-60
2023/07/26 07:20:10;;;;;;;1.50;0.93;;;;;;;19.52;80.70;98557.50;5095636;28;19927;-60
2023/07/26 07:22:39;;;;;;;1.35;0.73;;;;;;;19.57;80.54;98560.69;5108296;28;20120;-61
2023/07/26 07:25:09;;;;;;;0.70;0.70;;;;;;;19.58;80.72;98567.50;5111348;28;20039;-60
2023/07/26 07:27:38;;;;;;;0.35;0.35;;;;;;;19.59;80.52;98566.59;5095443;28;20044;-60
2023/07/26 07:30:10;;;;;;;1.15;0.82;;;;;;;19.62;80.32;98573.38;5095155;28;20036;-61
2023/07/26 07:32:39;;;;;;;0.60;0.60;;;;;;;19.61;80.01;98577.69;5094693;28;20509;-61
2023/07/26 07:35:09;;;;;;;2.97;0.82;;;;;;;19.65;80.25;98579.19;5094987;28;20123;-60
2023/07/26 07:37:39;;;;;;;0.43;0.43;;;;;;;19.70;80.29;98581.56;5095042;28;20135;-60
2023/07/26 07:40:09;;;;;;;0.73;0.70;;;;;;;19.69;80.55;98580.72;5094899;28;20139;-60
2023/07/26 07:42:38;;;;;;;1.60;1.10;;;;;;;19.77;80.28;98590.66;5107524;28;20497;-60
2023/07/26 07:45:09;;;;;;;0.50;0.50;;;;;;;19.71;80.07;98593.56;5115261;27;20087;-60
2023/07/26 07:47:37;;;;;;;0.40;0.40;;;;;;;19.67;80.01;98598.09;5095344;27;20047;-63
2023/07/26 07:50:09;;;;;;;0.80;0.53;;;;;;;19.64;79.95;98605.19;5094692;28;20032;-60
2023/07/26 07:52:39;;;;;;;0.60;0.60;;;;;;;19.62;80.23;98605.28;5094718;28;20276;-60
2023/07/26 07:55:09;;;;;;;1.65;0.80;;;;;;;19.60;80.32;98617.47;5094559;28;20135;-60
2023/07/26 07:57:38;;;;;;;;;;;;;;;19.56;80.39;98620.28;5094718;28;20048;-62
2023/07/26 08:00:09;;;;;;;0.70;0.70;;;;;;;19.53;80.04;98626.47;5097253;28;19920;-61
2023/07/26 08:02:41;;;;;;;0.40;0.40;;;;;;;19.47;79.93;98631.97;5092778;28;20065;-60
2023/07/26 08:05:12;;;;;;;0.50;0.50;;;;;;;19.43;79.96;98633.06;5094718;28;20047;-61
2023/07/26 08:07:40;;;;;;;0.82;0.80;;;;;;;19.37;80.01;98633.38;5094267;28;20044;-62
2023/07/26 08:10:10;;;;;;;0.47;0.47;;;;;;;19.32;80.28;98632.75;5093733;28;20089;-60
2023/07/26 08:12:38;;;;;;;;;;;;;;;19.32;80.56;98632.75;5094617;28;20169;-60
2023/07/26 08:15:08;;;;;;;0.60;0.60;;;;;;;19.32;80.67;98632.75;5093628;28;19920;-60
2023/07/26 08:17:37;;;;;;;0.98;0.98;;;;;;;19.31;81.05;98638.88;5092043;28;20037;-61
2023/07/26 08:20:07;;;;;;;2.03;0.65;;;;;;;19.28;81.01;98641.59;5093693;28;20551;-61
2023/07/26 08:22:37;;;;;;;0.40;0.40;;;;;;;19.18;80.98;98640.41;5094063;28;20130;-60
2023/07/26 08:25:08;;;;;;;0.93;0.93;;;;;;;19.18;81.31;98640.41;5094869;28;20040;-60
2023/07/26 08:27:37;;;;;;;0.98;0.88;;;;;;;19.19;81.21;98644.69;5093827;28;20431;-60
2023/07/26 08:30:08;;;;;;;0.55;0.55;;;;;;;19.25;81.30;98641.75;5094294;28;20051;-60
2023/07/26 08:32:37;;;;;;;0.95;0.80;;;;;;;19.26;81.47;98643.44;5092895;28;20123;-61
2023/07/26 08:35:06;;;;;;;0.75;0.75;;;;;;;19.25;81.61;98632.25;5094009;28;20097;-61
2023/07/26 08:37:35;;;;;;;;;;;;;;;19.24;81.71;98634.94;5095210;28;20127;-61
2023/07/26 08:40:06;;;;;;;0.60;0.60;;;;;;;19.27;81.76;98637.31;5094127;28;19927;-61
2023/07/26 08:42:35;;;;;;;0.50;0.50;;;;;;;19.23;81.83;98638.41;5093813;28;20133;-61
2023/07/26 08:45:06;;;;;;;0.50;0.50;;;;;;;19.18;81.97;98637.81;5094174;28;20044;-60
2023/07/26 08:47:36;;;;;;;0.68;0.65;;;;;;;19.20;81.97;98638.56;5101786;28;20291;-61
2023/07/26 08:50:07;;;;;;;0.50;0.50;;;;;;;19.25;82.16;98636.59;5103278;28;21834;-61
2023/07/26 08:52:36;;;;;;;1.10;1.00;;;;;;;19.33;82.30;98642.19;5092340;28;20432;-61
2023/07/26 08:55:08;;;;;;;0.63;0.63;;;;;;;19.36;82.56;98644.66;5093158;28;20074;-61
2023/07/26 08:57:37;;;;;;;0.70;0.70;;;;;;;19.34;82.53;98662.81;5093993;28;20043;-60
2023/07/26 09:00:11;;;;;;;0.60;0.60;;;;;;;19.31;82.83;98660.41;5094700;28;20089;-61
2023/07/26 09:02:45;;;;;;;0.57;0.57;;;;;;;19.22;82.68;98658.28;5093862;28;20398;-61
2023/07/26 09:05:14;;;;;;;0.40;0.40;;;;;;;19.26;82.71;98653.78;5096715;28;20040;-61
2023/07/26 09:07:43;;;;;;;8.90;3.10;;;;;;;19.25;82.88;98652.09;5094761;28;20154;-61
2023/07/26 09:10:13;;;;;;;1.05;0.65;;;;;;;19.24;82.72;98645.28;5093859;28;20285;-61
2023/07/26 09:12:42;;;;;;;1.05;0.95;;;;;;;19.25;82.69;98636.59;5093639;28;20048;-61
2023/07/26 09:15:11;;;;;;;0.75;0.70;;;;;;;19.28;82.60;98642.44;5093807;28;20131;-61
2023/07/26 09:17:43;;;;;;;0.75;0.75;;;;;;;19.32;82.56;98643.09;5105883;28;20036;-61
2023/07/26 09:20:22;;;;;;;1.23;1.13;;;;;;;19.37;82.49;98651.50;5113810;28;20043;-60
2023/07/26 09:22:59;;;;;;;0.50;0.50;;;;;;;19.42;82.50;98657.25;5113855;28;20048;-61
2023/07/26 09:25:34;;;;;;;0.85;0.80;;;;;;;19.39;82.65;98654.84;5104549;28;20101;-61
2023/07/26 09:28:03;;;;;;;0.52;0.52;;;;;;;19.34;82.71;98652.47;5093444;28;20048;-60
2023/07/26 09:30:36;;;;;;;0.55;0.55;;;;;;;19.29;82.84;98657.03;5093390;28;20048;-61
2023/07/26 09:33:06;;;;;;;1.00;0.90;;;;;;;19.22;82.74;98657.44;5093595;28;20044;-61
2023/07/26 09:35:43;;;;;;;3.50;0.93;;;;;;;19.06;82.91;98652.22;5101465;28;20558;-60
2023/07/26 09:38:13;;;;;;;0.82;0.82;;;;;;;19.01;83.13;98663.72;5113817;28;20122;-61
2023/07/26 09:40:43;;;;;;;0.50;0.50;;;;;;;19.03;83.42;98661.88;5113838;28;20472;-60
2023/07/26 09:43:12;;;;;;;0.68;0.60;;;;;;;19.04;83.05;98668.75;5113340;28;20056;-60
2023/07/26 09:45:42;;;;;;;2.65;2.40;;;;;;;18.97;82.92;98672.56;5103284;28;20048;-60
2023/07/26 09:48:14;;;;;;;0.60;0.57;;;;;;;18.93;82.94;98673.63;5093659;28;20120;-60
2023/07/26 09:50:50;;;;;;;2.05;1.08;;;;;;;18.91;82.83;98678.84;5093272;28;20176;-60
2023/07/26 09:53:23;;;;;;;0.40;0.40;;;;;;;18.94;82.71;98680.47;5096033;28;20058;-61
2023/07/26 09:55:54;;;;;;;0.70;0.60;;;;;;;18.84;82.53;98684.41;5112573;28;20405;-61
2023/07/26 09:58:32;;;;;;;6.30;3.80;;;;;;;18.78;82.77;98692.50;5113723;28;20371;-60
2023/07/26 10:01:02;;;;;;;1.08;0.88;;;;;;;18.70;82.80;98696.28;5113877;28;20454;-61
2023/07/26 10:03:37;;;;;;;0.60;0.60;;;;;;;18.68;82.83;98697.28;5108437;28;20068;-61
2023/07/26 10:06:07;;;;;;;0.73;0.73;;;;;;;18.62;82.52;98708.75;5093291;28;20032;-61
2023/07/26 10:08:41;;;;;;;0.93;0.88;;;;;;;18.68;82.61;98708.47;5096948;28;20393;-60
2023/07/26 10:11:13;;;;;;;0.88;0.68;;;;;;;18.73;82.39;98709.06;5096977;28;20166;-60
2023/07/26 10:13:43;;;;;;;0.40;0.40;;;;;;;18.76;82.12;98720.16;5096716;28;20036;-60
2023/07/26 10:16:12;;;;;;;0.60;0.60;;;;;;;18.69;81.99;98719.66;5104728;28;20070;-60
2023/07/26 10:18:43;;;;;;;0.40;0.40;;;;;;;18.62;82.07;98729.41;5116945;28;20054;-61
2023/07/26 10:21:14;;;;;;;0.40;0.40;;;;;;;18.51;81.99;98723.94;5116954;28;20123;-60
2023/07/26 10:23:46;;;;;;;0.40;0.40;;;;;;;18.51;82.32;98726.53;5117343;28;20086;-61
2023/07/26 10:26:17;;;;;;;0.50;0.50;;;;;;;18.50;82.17;98724.84;5115460;28;20413;-61
2023/07/26 10:28:46;;;;;;;0.40;0.40;;;;;;;18.53;82.52;98724.69;5115793;28;20044;-60
2023/07/26 10:31:15;;;;;;;;;;;;;;;18.44;82.23;98725.13;5115485;28;20104;-61
2023/07/26 10:33:45;;;;;;;0.40;0.40;;;;;;;18.39;82.25;98726.25;5116867;28;20338;-60
2023/07/26 10:36:15;;;;;;;3.80;1.50;;;;;;;18.41;82.38;98722.66;5115676;28;20074;-60
2023/07/26 10:38:50;;;;;;;0.40;0.40;;;;;;;18.46;82.47;98728.50;5116624;28;20054;-60
2023/07/26 10:41:24;;;;;;;0.45;0.45;;;;;;;18.61;82.29;98732.94;5108348;28;20044;-60
2023/07/26 10:44:12;;;;;;;0.50;0.50;;;;;;;18.73;82.44;98741.84;5096097;28;20047;-60
2023/07/26 10:46:54;;;;;;;0.40;0.40;;;;;;;18.86;81.87;98729.16;5096217;28;20044;-61
2023/07/26 10:49:27;;;;;;;0.40;0.40;;;;;;;18.89;80.90;98732.41;5099119;28;20040;-61
2023/07/26 10:51:58;;;;;;;0.40;0.40;;;;;;;18.88;79.57;98729.91;5099970;28;20046;-61
2023/07/26 10:54:49;;;;;;;0.50;0.50;;;;;;;19.06;78.90;98739.31;5095576;28;20040;-61
2023/07/26 10:57:21;;;;;;;2.40;1.08;;;;;;;19.14;78.39;98748.41;5097237;28;20127;-61
2023/07/26 10:59:57;;;;;;;0.40;0.40;;;;;;;19.24;78.15;98759.13;5095505;28;20090;-61
2023/07/26 11:02:38;;;;;;;0.40;0.40;;;;;;;19.40;77.72;98765.22;5094721;28;20054;-61
2023/07/26 11:05:12;;;;;;;0.43;0.43;;;;;;;19.37;76.83;98755.00;5095730;28;20596;-61
2023/07/26 11:07:53;;;;;;;0.50;0.50;;;;;;;19.45;75.98;98768.41;5099394;28;20127;-62
2023/07/26 11:10:24;;;;;;;0.40;0.40;;;;;;;19.51;75.12;98762.91;5107282;28;20134;-62
2023/07/26 11:13:11;;;;;;;0.57;0.57;;;;;;;19.60;74.29;98764.19;5101820;28;20048;-62
2023/07/26 11:15:42;;;;;;;0.40;0.40;;;;;;;19.67;73.51;98778.50;5114905;28;20051;-62
2023/07/26 11:18:31;;;;;;;0.75;0.75;;;;;;;19.72;73.03;98787.69;5095699;28;20068;-62
2023/07/26 11:21:00;;;;;;;0.40;0.40;;;;;;;19.69;72.80;98782.66;5095363;28;20067;-62
2023/07/26 11:23:29;;;;;;;0.30;0.30;;;;;;;19.62;72.57;98785.66;5095275;28;20036;-62
2023/07/26 11:26:02;;;;;;;0.35;0.35;;;;;;;19.44;71.64;98800.38;5095249;28;20048;-62
2023/07/26 11:28:35;;;;;;;0.30;0.30;;;;;;;19.32;70.86;98806.13;5100276;28;20127;-62
2023/07/26 11:31:04;;;;;;;0.77;0.60;;;;;;;19.19;70.00;98803.34;5093853;28;20482;-62
2023/07/26 11:33:35;;;;;;;0.60;0.50;;;;;;;19.12;69.68;98816.66;5094304;28;20402;-62
2023/07/26 11:36:05;;;;;;;0.30;0.30;;;;;;;19.07;69.50;98823.78;5097094;28;20059;-62
2023/07/26 11:38:35;;;;;;;0.40;0.40;;;;;;;18.98;68.82;98819.06;5106426;28;20047;-61
2023/07/26 11:41:04;;;;;;;0.43;0.43;;;;;;;18.90;68.39;98821.19;5108724;28;20500;-61
2023/07/26 11:43:39;;;;;;;0.50;0.50;;;;;;;18.91;67.81;98818.50;5094730;28;20040;-62
2023/07/26 11:46:08;;;;;;;0.35;0.35;;;;;;;18.90;67.59;98828.94;5094841;28;20040;-62
2023/07/26 11:48:37;;;;;;;;;;;;;;;18.90;67.47;98828.94;5095189;28;20055;-62
2023/07/26 11:51:05;;;;;;;3.08;0.70;;;;;;;18.92;67.81;98840.03;5108682;28;19920;-62